sensor_id;sensor_type;location;lat;lon;timestamp;P1;durP1;ratioP1;P2;durP2;ratioP2
4911;SDS011;2471;47.056;8.350;2023-06-26T00:02:21;12.47;;;10.33;;
4911;SDS011;2471;47.056;8.350;2023-06-26T00:04:47;13.80;;;11.00;;
4911;SDS011;2471;47.056;8.350;2023-06-26T00:07:13;14.70;;;11.55;;
4911;SDS011;2471;47.056;8.350;2023-06-26T00:09:39;14.13;;;12.32;;
4911;SDS011;2471;47.056;8.350;2023-06-26T00:12:05;12.80;;;11.05;;
4911;SDS011;2471;47.056;8.350;2023-06-26T00:14:31;13.40;;;12.00;;
4911;SDS011;2471;47.056;8.350;2023-06-26T00:16:57;14.40;;;11.63;;
4911;SDS011;2471;47.056;8.350;2023-06-26T00:19:23;13.98;;;11.75;;
4911;SDS011;2471;47.056;8.350;2023-06-26T00:21:48;14.95;;;11.30;;
4911;SDS011;2471;47.056;8.350;2023-06-26T00:24:14;13.87;;;11.13;;
4911;SDS011;2471;47.056;8.350;2023-06-26T00:26:40;16.40;;;12.48;;
4911;SDS011;2471;47.056;8.350;2023-06-26T00:29:06;14.10;;;11.77;;
4911;SDS011;2471;47.056;8.350;2023-06-26T00:31:32;13.30;;;11.70;;
4911;SDS011;2471;47.056;8.350;2023-06-26T00:34:00;14.65;;;11.40;;
4911;SDS011;2471;47.056;8.350;2023-06-26T00:36:26;12.63;;;11.25;;
4911;SDS011;2471;47.056;8.350;2023-06-26T00:38:52;17.80;;;12.10;;
4911;SDS011;2471;47.056;8.350;2023-06-26T00:41:18;12.40;;;11.07;;
4911;SDS011;2471;47.056;8.350;2023-06-26T00:43:44;14.60;;;11.60;;
4911;SDS011;2471;47.056;8.350;2023-06-26T00:46:12;15.10;;;11.60;;
4911;SDS011;2471;47.056;8.350;2023-06-26T00:48:38;12.30;;;11.00;;
4911;SDS011;2471;47.056;8.350;2023-06-26T00:51:04;13.37;;;11.47;;
4911;SDS011;2471;47.056;8.350;2023-06-26T00:53:31;12.73;;;11.30;;
4911;SDS011;2471;47.056;8.350;2023-06-26T00:55:57;13.65;;;10.75;;
4911;SDS011;2471;47.056;8.350;2023-06-26T00:58:23;12.38;;;11.02;;
4911;SDS011;2471;47.056;8.350;2023-06-26T01:00:52;13.65;;;10.70;;
4911;SDS011;2471;47.056;8.350;2023-06-26T01:03:19;14.30;;;11.70;;
4911;SDS011;2471;47.056;8.350;2023-06-26T01:05:45;14.32;;;11.55;;
4911;SDS011;2471;47.056;8.350;2023-06-26T01:08:14;14.23;;;10.50;;
4911;SDS011;2471;47.056;8.350;2023-06-26T01:10:40;15.13;;;11.60;;
4911;SDS011;2471;47.056;8.350;2023-06-26T01:13:06;13.70;;;11.50;;
4911;SDS011;2471;47.056;8.350;2023-06-26T01:15:33;13.52;;;11.82;;
4911;SDS011;2471;47.056;8.350;2023-06-26T01:17:59;14.70;;;11.60;;
4911;SDS011;2471;47.056;8.350;2023-06-26T01:20:28;13.35;;;11.95;;
4911;SDS011;2471;47.056;8.350;2023-06-26T01:28:09;13.38;;;11.98;;
4911;SDS011;2471;47.056;8.350;2023-06-26T01:30:37;14.40;;;11.50;;
4911;SDS011;2471;47.056;8.350;2023-06-26T01:33:03;14.90;;;12.10;;
4911;SDS011;2471;47.056;8.350;2023-06-26T01:35:29;14.20;;;11.85;;
4911;SDS011;2471;47.056;8.350;2023-06-26T01:38:11;13.53;;;12.07;;
4911;SDS011;2471;47.056;8.350;2023-06-26T01:40:37;14.10;;;12.60;;
4911;SDS011;2471;47.056;8.350;2023-06-26T01:43:03;13.68;;;12.27;;
4911;SDS011;2471;47.056;8.350;2023-06-26T01:45:30;15.27;;;12.57;;
4911;SDS011;2471;47.056;8.350;2023-06-26T01:47:58;14.25;;;12.75;;
4911;SDS011;2471;47.056;8.350;2023-06-26T01:50:26;13.40;;;12.00;;
4911;SDS011;2471;47.056;8.350;2023-06-26T01:53:13;18.25;;;12.40;;
4911;SDS011;2471;47.056;8.350;2023-06-26T01:55:50;13.57;;;12.18;;
4911;SDS011;2471;47.056;8.350;2023-06-26T01:58:17;15.60;;;12.10;;
4911;SDS011;2471;47.056;8.350;2023-06-26T02:00:43;15.90;;;12.20;;
4911;SDS011;2471;47.056;8.350;2023-06-26T02:03:09;13.82;;;11.30;;
4911;SDS011;2471;47.056;8.350;2023-06-26T02:05:35;14.55;;;11.60;;
4911;SDS011;2471;47.056;8.350;2023-06-26T02:08:01;15.23;;;12.07;;
4911;SDS011;2471;47.056;8.350;2023-06-26T02:10:27;14.45;;;11.93;;
4911;SDS011;2471;47.056;8.350;2023-06-26T02:12:53;15.13;;;12.57;;
4911;SDS011;2471;47.056;8.350;2023-06-26T02:15:19;17.40;;;12.30;;
4911;SDS011;2471;47.056;8.350;2023-06-26T02:17:45;15.90;;;13.32;;
4911;SDS011;2471;47.056;8.350;2023-06-26T02:20:13;18.52;;;12.20;;
4911;SDS011;2471;47.056;8.350;2023-06-26T02:22:39;15.95;;;13.00;;
4911;SDS011;2471;47.056;8.350;2023-06-26T02:25:05;17.02;;;12.50;;
4911;SDS011;2471;47.056;8.350;2023-06-26T02:27:31;17.13;;;12.77;;
4911;SDS011;2471;47.056;8.350;2023-06-26T02:29:57;17.50;;;12.90;;
4911;SDS011;2471;47.056;8.350;2023-06-26T02:32:23;15.00;;;12.07;;
4911;SDS011;2471;47.056;8.350;2023-06-26T02:34:49;14.88;;;12.35;;
4911;SDS011;2471;47.056;8.350;2023-06-26T02:37:18;14.50;;;12.23;;
4911;SDS011;2471;47.056;8.350;2023-06-26T02:39:44;18.02;;;11.40;;
4911;SDS011;2471;47.056;8.350;2023-06-26T02:42:10;13.52;;;12.13;;
4911;SDS011;2471;47.056;8.350;2023-06-26T02:44:36;14.50;;;12.80;;
4911;SDS011;2471;47.056;8.350;2023-06-26T02:47:02;15.80;;;12.50;;
4911;SDS011;2471;47.056;8.350;2023-06-26T02:49:28;15.13;;;12.50;;
4911;SDS011;2471;47.056;8.350;2023-06-26T02:51:54;14.73;;;12.80;;
4911;SDS011;2471;47.056;8.350;2023-06-26T02:54:20;14.10;;;12.68;;
4911;SDS011;2471;47.056;8.350;2023-06-26T02:56:46;15.80;;;12.80;;
4911;SDS011;2471;47.056;8.350;2023-06-26T02:59:13;16.50;;;12.60;;
4911;SDS011;2471;47.056;8.350;2023-06-26T03:01:39;16.03;;;13.70;;
4911;SDS011;2471;47.056;8.350;2023-06-26T03:04:05;16.50;;;13.38;;
4911;SDS011;2471;47.056;8.350;2023-06-26T03:06:30;14.80;;;13.20;;
4911;SDS011;2471;47.056;8.350;2023-06-26T03:08:56;17.17;;;13.47;;
4911;SDS011;2471;47.056;8.350;2023-06-26T03:11:22;16.88;;;12.77;;
4911;SDS011;2471;47.056;8.350;2023-06-26T03:13:48;15.80;;;13.35;;
4911;SDS011;2471;47.056;8.350;2023-06-26T03:16:14;17.47;;;13.60;;
4911;SDS011;2471;47.056;8.350;2023-06-26T03:18:40;16.33;;;14.00;;
4911;SDS011;2471;47.056;8.350;2023-06-26T03:21:06;14.90;;;13.10;;
4911;SDS011;2471;47.056;8.350;2023-06-26T03:23:32;18.33;;;14.50;;
4911;SDS011;2471;47.056;8.350;2023-06-26T03:25:58;15.70;;;13.82;;
4911;SDS011;2471;47.056;8.350;2023-06-26T03:28:24;17.15;;;14.20;;
4911;SDS011;2471;47.056;8.350;2023-06-26T03:30:50;17.27;;;13.07;;
4911;SDS011;2471;47.056;8.350;2023-06-26T03:33:16;16.88;;;14.15;;
4911;SDS011;2471;47.056;8.350;2023-06-26T03:35:42;16.05;;;14.18;;
4911;SDS011;2471;47.056;8.350;2023-06-26T03:38:08;17.02;;;14.00;;
4911;SDS011;2471;47.056;8.350;2023-06-26T03:40:34;20.90;;;13.40;;
4911;SDS011;2471;47.056;8.350;2023-06-26T03:43:00;15.80;;;13.68;;
4911;SDS011;2471;47.056;8.350;2023-06-26T03:45:26;16.05;;;14.35;;
4911;SDS011;2471;47.056;8.350;2023-06-26T03:47:52;18.73;;;14.20;;
4911;SDS011;2471;47.056;8.350;2023-06-26T03:50:18;16.13;;;14.13;;
4911;SDS011;2471;47.056;8.350;2023-06-26T03:52:45;17.60;;;14.20;;
4911;SDS011;2471;47.056;8.350;2023-06-26T03:55:11;15.32;;;13.40;;
4911;SDS011;2471;47.056;8.350;2023-06-26T03:57:37;17.05;;;13.68;;
4911;SDS011;2471;47.056;8.350;2023-06-26T04:00:03;20.17;;;14.20;;
4911;SDS011;2471;47.056;8.350;2023-06-26T04:02:38;16.85;;;14.38;;
4911;SDS011;2471;47.056;8.350;2023-06-26T04:05:04;21.20;;;15.50;;
4911;SDS011;2471;47.056;8.350;2023-06-26T04:07:30;20.10;;;15.20;;
4911;SDS011;2471;47.056;8.350;2023-06-26T04:09:57;19.40;;;13.93;;
4911;SDS011;2471;47.056;8.350;2023-06-26T04:12:23;16.50;;;14.50;;
4911;SDS011;2471;47.056;8.350;2023-06-26T04:14:49;16.13;;;14.38;;
4911;SDS011;2471;47.056;8.350;2023-06-26T04:17:15;17.27;;;14.70;;
4911;SDS011;2471;47.056;8.350;2023-06-26T04:19:41;19.10;;;14.75;;
4911;SDS011;2471;47.056;8.350;2023-06-26T04:22:07;15.60;;;13.90;;
4911;SDS011;2471;47.056;8.350;2023-06-26T04:24:32;15.50;;;13.75;;
4911;SDS011;2471;47.056;8.350;2023-06-26T04:26:58;15.43;;;13.80;;
4911;SDS011;2471;47.056;8.350;2023-06-26T04:29:25;16.50;;;14.55;;
4911;SDS011;2471;47.056;8.350;2023-06-26T04:31:52;17.15;;;14.80;;
4911;SDS011;2471;47.056;8.350;2023-06-26T04:34:22;17.77;;;14.63;;
4911;SDS011;2471;47.056;8.350;2023-06-26T04:36:48;17.20;;;14.00;;
4911;SDS011;2471;47.056;8.350;2023-06-26T04:39:15;17.92;;;15.00;;
4911;SDS011;2471;47.056;8.350;2023-06-26T04:41:41;17.33;;;15.13;;
4911;SDS011;2471;47.056;8.350;2023-06-26T04:44:07;16.52;;;14.45;;
4911;SDS011;2471;47.056;8.350;2023-06-26T04:46:33;17.90;;;14.40;;
4911;SDS011;2471;47.056;8.350;2023-06-26T04:48:59;16.23;;;14.52;;
4911;SDS011;2471;47.056;8.350;2023-06-26T04:51:28;18.80;;;14.38;;
4911;SDS011;2471;47.056;8.350;2023-06-26T04:53:54;15.48;;;13.48;;
4911;SDS011;2471;47.056;8.350;2023-06-26T04:56:20;21.17;;;16.50;;
4911;SDS011;2471;47.056;8.350;2023-06-26T04:58:46;18.50;;;14.73;;
4911;SDS011;2471;47.056;8.350;2023-06-26T05:01:12;17.90;;;15.95;;
4911;SDS011;2471;47.056;8.350;2023-06-26T05:03:38;15.80;;;13.25;;
4911;SDS011;2471;47.056;8.350;2023-06-26T05:06:04;14.23;;;12.73;;
4911;SDS011;2471;47.056;8.350;2023-06-26T05:08:30;16.33;;;14.02;;
4911;SDS011;2471;47.056;8.350;2023-06-26T05:10:56;16.60;;;14.77;;
4911;SDS011;2471;47.056;8.350;2023-06-26T05:13:23;16.42;;;14.40;;
4911;SDS011;2471;47.056;8.350;2023-06-26T05:15:49;15.35;;;13.68;;
4911;SDS011;2471;47.056;8.350;2023-06-26T05:18:16;16.10;;;14.05;;
4911;SDS011;2471;47.056;8.350;2023-06-26T05:20:42;18.20;;;13.80;;
4911;SDS011;2471;47.056;8.350;2023-06-26T05:23:08;17.23;;;14.67;;
4911;SDS011;2471;47.056;8.350;2023-06-26T05:25:36;14.77;;;12.10;;
4911;SDS011;2471;47.056;8.350;2023-06-26T05:28:02;18.42;;;14.60;;
4911;SDS011;2471;47.056;8.350;2023-06-26T05:30:30;16.13;;;13.10;;
4911;SDS011;2471;47.056;8.350;2023-06-26T05:32:59;13.65;;;11.65;;
4911;SDS011;2471;47.056;8.350;2023-06-26T05:35:27;14.45;;;12.65;;
4911;SDS011;2471;47.056;8.350;2023-06-26T05:37:54;13.67;;;11.90;;
4911;SDS011;2471;47.056;8.350;2023-06-26T05:40:21;13.73;;;11.53;;
4911;SDS011;2471;47.056;8.350;2023-06-26T05:42:47;16.67;;;13.88;;
4911;SDS011;2471;47.056;8.350;2023-06-26T05:45:13;13.75;;;11.75;;
4911;SDS011;2471;47.056;8.350;2023-06-26T05:47:39;18.27;;;13.50;;
4911;SDS011;2471;47.056;8.350;2023-06-26T05:50:05;15.68;;;14.07;;
4911;SDS011;2471;47.056;8.350;2023-06-26T05:52:31;11.73;;;10.30;;
4911;SDS011;2471;47.056;8.350;2023-06-26T05:54:58;15.50;;;12.70;;
4911;SDS011;2471;47.056;8.350;2023-06-26T05:57:25;13.52;;;11.15;;
4911;SDS011;2471;47.056;8.350;2023-06-26T05:59:52;12.20;;;11.00;;
4911;SDS011;2471;47.056;8.350;2023-06-26T06:02:18;15.63;;;11.45;;
4911;SDS011;2471;47.056;8.350;2023-06-26T06:04:44;12.80;;;11.40;;
4911;SDS011;2471;47.056;8.350;2023-06-26T06:07:10;12.98;;;11.68;;
4911;SDS011;2471;47.056;8.350;2023-06-26T06:09:35;15.63;;;11.10;;
4911;SDS011;2471;47.056;8.350;2023-06-26T06:12:02;15.13;;;10.70;;
4911;SDS011;2471;47.056;8.350;2023-06-26T06:14:29;12.20;;;9.93;;
4911;SDS011;2471;47.056;8.350;2023-06-26T06:16:55;12.63;;;10.10;;
4911;SDS011;2471;47.056;8.350;2023-06-26T06:19:22;11.00;;;9.90;;
4911;SDS011;2471;47.056;8.350;2023-06-26T06:21:48;11.30;;;9.80;;
4911;SDS011;2471;47.056;8.350;2023-06-26T06:24:14;11.73;;;9.93;;
4911;SDS011;2471;47.056;8.350;2023-06-26T06:26:40;10.55;;;9.45;;
4911;SDS011;2471;47.056;8.350;2023-06-26T06:29:06;10.95;;;9.85;;
4911;SDS011;2471;47.056;8.350;2023-06-26T06:31:32;10.60;;;9.60;;
4911;SDS011;2471;47.056;8.350;2023-06-26T06:33:58;11.10;;;10.00;;
4911;SDS011;2471;47.056;8.350;2023-06-26T06:36:24;12.23;;;10.27;;
4911;SDS011;2471;47.056;8.350;2023-06-26T06:38:50;10.23;;;9.23;;
4911;SDS011;2471;47.056;8.350;2023-06-26T06:41:16;12.10;;;9.63;;
4911;SDS011;2471;47.056;8.350;2023-06-26T06:43:42;10.95;;;9.50;;
4911;SDS011;2471;47.056;8.350;2023-06-26T06:46:08;11.25;;;10.10;;
4911;SDS011;2471;47.056;8.350;2023-06-26T06:48:34;10.80;;;9.70;;
4911;SDS011;2471;47.056;8.350;2023-06-26T06:51:00;11.55;;;9.10;;
4911;SDS011;2471;47.056;8.350;2023-06-26T06:53:27;10.70;;;9.10;;
4911;SDS011;2471;47.056;8.350;2023-06-26T06:55:53;11.48;;;9.65;;
4911;SDS011;2471;47.056;8.350;2023-06-26T06:58:19;10.30;;;8.40;;
4911;SDS011;2471;47.056;8.350;2023-06-26T07:00:45;12.90;;;8.90;;
4911;SDS011;2471;47.056;8.350;2023-06-26T07:03:11;12.47;;;9.40;;
4911;SDS011;2471;47.056;8.350;2023-06-26T07:05:37;9.77;;;8.70;;
4911;SDS011;2471;47.056;8.350;2023-06-26T07:08:03;11.35;;;9.45;;
4911;SDS011;2471;47.056;8.350;2023-06-26T07:10:30;13.10;;;8.60;;
4911;SDS011;2471;47.056;8.350;2023-06-26T07:12:56;10.75;;;8.85;;
4911;SDS011;2471;47.056;8.350;2023-06-26T07:15:21;9.95;;;8.93;;
4911;SDS011;2471;47.056;8.350;2023-06-26T07:17:47;14.07;;;10.30;;
4911;SDS011;2471;47.056;8.350;2023-06-26T07:20:13;10.65;;;9.50;;
4911;SDS011;2471;47.056;8.350;2023-06-26T07:22:42;10.98;;;9.07;;
4911;SDS011;2471;47.056;8.350;2023-06-26T07:25:09;15.00;;;9.35;;
4911;SDS011;2471;47.056;8.350;2023-06-26T07:27:39;11.63;;;9.20;;
4911;SDS011;2471;47.056;8.350;2023-06-26T07:30:05;12.52;;;8.88;;
4911;SDS011;2471;47.056;8.350;2023-06-26T07:32:33;11.53;;;8.80;;
4911;SDS011;2471;47.056;8.350;2023-06-26T07:34:59;9.45;;;8.55;;
4911;SDS011;2471;47.056;8.350;2023-06-26T07:37:25;12.33;;;8.97;;
4911;SDS011;2471;47.056;8.350;2023-06-26T07:39:51;11.55;;;8.13;;
4911;SDS011;2471;47.056;8.350;2023-06-26T07:42:17;9.80;;;8.80;;
4911;SDS011;2471;47.056;8.350;2023-06-26T07:44:43;9.00;;;8.10;;
4911;SDS011;2471;47.056;8.350;2023-06-26T07:47:10;10.27;;;8.60;;
4911;SDS011;2471;47.056;8.350;2023-06-26T07:49:36;10.60;;;8.50;;
4911;SDS011;2471;47.056;8.350;2023-06-26T07:52:04;10.43;;;8.63;;
4911;SDS011;2471;47.056;8.350;2023-06-26T07:54:30;11.60;;;8.93;;
4911;SDS011;2471;47.056;8.350;2023-06-26T07:59:22;11.40;;;8.40;;
4911;SDS011;2471;47.056;8.350;2023-06-26T08:01:48;12.70;;;8.82;;
4911;SDS011;2471;47.056;8.350;2023-06-26T08:04:14;11.68;;;8.70;;
4911;SDS011;2471;47.056;8.350;2023-06-26T08:06:40;8.52;;;7.70;;
4911;SDS011;2471;47.056;8.350;2023-06-26T08:09:06;11.75;;;8.50;;
4911;SDS011;2471;47.056;8.350;2023-06-26T08:11:33;9.80;;;8.70;;
4911;SDS011;2471;47.056;8.350;2023-06-26T08:13:59;10.48;;;8.15;;
4911;SDS011;2471;47.056;8.350;2023-06-26T08:16:25;13.73;;;7.55;;
4911;SDS011;2471;47.056;8.350;2023-06-26T08:18:51;9.35;;;8.45;;
4911;SDS011;2471;47.056;8.350;2023-06-26T08:21:17;9.48;;;8.00;;
4911;SDS011;2471;47.056;8.350;2023-06-26T08:23:43;13.25;;;8.40;;
4911;SDS011;2471;47.056;8.350;2023-06-26T08:26:09;11.73;;;8.60;;
4911;SDS011;2471;47.056;8.350;2023-06-26T08:28:35;10.10;;;8.10;;
4911;SDS011;2471;47.056;8.350;2023-06-26T08:31:01;12.45;;;7.93;;
4911;SDS011;2471;47.056;8.350;2023-06-26T08:33:27;8.47;;;7.67;;
4911;SDS011;2471;47.056;8.350;2023-06-26T08:35:53;8.70;;;7.70;;
4911;SDS011;2471;47.056;8.350;2023-06-26T08:38:18;11.10;;;8.10;;
4911;SDS011;2471;47.056;8.350;2023-06-26T08:40:46;8.93;;;8.02;;
4911;SDS011;2471;47.056;8.350;2023-06-26T08:43:12;10.30;;;8.20;;
4911;SDS011;2471;47.056;8.350;2023-06-26T08:45:38;10.90;;;7.73;;
4911;SDS011;2471;47.056;8.350;2023-06-26T08:48:04;8.40;;;7.50;;
4911;SDS011;2471;47.056;8.350;2023-06-26T08:50:33;9.18;;;7.45;;
4911;SDS011;2471;47.056;8.350;2023-06-26T08:53:09;8.60;;;7.70;;
4911;SDS011;2471;47.056;8.350;2023-06-26T08:55:38;8.20;;;7.40;;
4911;SDS011;2471;47.056;8.350;2023-06-26T08:58:04;8.50;;;7.70;;
4911;SDS011;2471;47.056;8.350;2023-06-26T09:00:30;8.80;;;7.80;;
4911;SDS011;2471;47.056;8.350;2023-06-26T09:02:56;9.93;;;7.80;;
4911;SDS011;2471;47.056;8.350;2023-06-26T09:05:22;9.05;;;7.80;;
4911;SDS011;2471;47.056;8.350;2023-06-26T09:07:48;8.00;;;7.30;;
4911;SDS011;2471;47.056;8.350;2023-06-26T09:10:14;9.00;;;7.20;;
4911;SDS011;2471;47.056;8.350;2023-06-26T09:12:40;9.30;;;6.90;;
4911;SDS011;2471;47.056;8.350;2023-06-26T09:15:06;12.93;;;7.15;;
4911;SDS011;2471;47.056;8.350;2023-06-26T09:17:33;12.75;;;7.90;;
4911;SDS011;2471;47.056;8.350;2023-06-26T09:19:59;9.52;;;7.45;;
4911;SDS011;2471;47.056;8.350;2023-06-26T09:22:25;8.40;;;7.60;;
4911;SDS011;2471;47.056;8.350;2023-06-26T09:24:52;8.52;;;7.63;;
4911;SDS011;2471;47.056;8.350;2023-06-26T09:27:18;9.68;;;7.60;;
4911;SDS011;2471;47.056;8.350;2023-06-26T09:29:47;8.90;;;7.30;;
4911;SDS011;2471;47.056;8.350;2023-06-26T09:32:14;7.63;;;6.60;;
4911;SDS011;2471;47.056;8.350;2023-06-26T09:34:41;11.45;;;7.10;;
4911;SDS011;2471;47.056;8.350;2023-06-26T09:37:07;9.77;;;7.00;;
4911;SDS011;2471;47.056;8.350;2023-06-26T09:39:33;7.50;;;6.30;;
4911;SDS011;2471;47.056;8.350;2023-06-26T09:41:59;6.60;;;6.00;;
4911;SDS011;2471;47.056;8.350;2023-06-26T09:44:26;7.22;;;6.20;;
4911;SDS011;2471;47.056;8.350;2023-06-26T09:46:54;6.55;;;5.90;;
4911;SDS011;2471;47.056;8.350;2023-06-26T09:49:20;10.35;;;6.50;;
4911;SDS011;2471;47.056;8.350;2023-06-26T09:51:46;7.00;;;6.40;;
4911;SDS011;2471;47.056;8.350;2023-06-26T09:54:15;10.70;;;6.70;;
4911;SDS011;2471;47.056;8.350;2023-06-26T09:56:42;8.10;;;6.70;;
4911;SDS011;2471;47.056;8.350;2023-06-26T09:59:08;7.20;;;6.50;;
4911;SDS011;2471;47.056;8.350;2023-06-26T10:01:40;6.68;;;5.97;;
4911;SDS011;2471;47.056;8.350;2023-06-26T10:04:06;7.18;;;6.30;;
4911;SDS011;2471;47.056;8.350;2023-06-26T10:06:44;14.15;;;12.30;;
4911;SDS011;2471;47.056;8.350;2023-06-26T10:09:12;9.68;;;6.95;;
4911;SDS011;2471;47.056;8.350;2023-06-26T10:11:46;14.32;;;6.90;;
4911;SDS011;2471;47.056;8.350;2023-06-26T10:14:13;8.07;;;6.43;;
4911;SDS011;2471;47.056;8.350;2023-06-26T10:16:39;11.40;;;6.68;;
4911;SDS011;2471;47.056;8.350;2023-06-26T10:19:08;8.13;;;6.90;;
4911;SDS011;2471;47.056;8.350;2023-06-26T10:21:35;11.60;;;8.40;;
4911;SDS011;2471;47.056;8.350;2023-06-26T10:24:06;9.75;;;8.75;;
4911;SDS011;2471;47.056;8.350;2023-06-26T10:26:35;8.20;;;7.20;;
4911;SDS011;2471;47.056;8.350;2023-06-26T10:29:03;7.20;;;6.40;;
4911;SDS011;2471;47.056;8.350;2023-06-26T10:31:29;7.57;;;6.77;;
4911;SDS011;2471;47.056;8.350;2023-06-26T10:33:56;7.78;;;6.60;;
4911;SDS011;2471;47.056;8.350;2023-06-26T10:36:29;9.80;;;6.70;;
4911;SDS011;2471;47.056;8.350;2023-06-26T10:38:56;8.00;;;7.20;;
4911;SDS011;2471;47.056;8.350;2023-06-26T10:41:23;11.02;;;6.90;;
4911;SDS011;2471;47.056;8.350;2023-06-26T10:43:50;7.95;;;6.60;;
4911;SDS011;2471;47.056;8.350;2023-06-26T10:46:17;7.13;;;6.43;;
4911;SDS011;2471;47.056;8.350;2023-06-26T10:48:56;7.20;;;6.50;;
4911;SDS011;2471;47.056;8.350;2023-06-26T10:51:24;7.38;;;6.40;;
4911;SDS011;2471;47.056;8.350;2023-06-26T10:53:53;10.70;;;7.60;;
4911;SDS011;2471;47.056;8.350;2023-06-26T10:56:19;12.23;;;7.40;;
4911;SDS011;2471;47.056;8.350;2023-06-26T10:58:47;8.20;;;7.38;;
4911;SDS011;2471;47.056;8.350;2023-06-26T11:01:14;11.63;;;7.10;;
4911;SDS011;2471;47.056;8.350;2023-06-26T11:03:44;8.60;;;6.68;;
4911;SDS011;2471;47.056;8.350;2023-06-26T11:06:14;9.57;;;6.70;;
4911;SDS011;2471;47.056;8.350;2023-06-26T11:08:52;7.20;;;6.43;;
4911;SDS011;2471;47.056;8.350;2023-06-26T11:11:19;7.88;;;6.68;;
4911;SDS011;2471;47.056;8.350;2023-06-26T11:13:46;7.80;;;7.00;;
4911;SDS011;2471;47.056;8.350;2023-06-26T11:16:12;8.00;;;7.20;;
4911;SDS011;2471;47.056;8.350;2023-06-26T11:18:39;9.15;;;6.78;;
4911;SDS011;2471;47.056;8.350;2023-06-26T11:21:06;8.23;;;6.47;;
4911;SDS011;2471;47.056;8.350;2023-06-26T11:23:32;8.52;;;6.90;;
4911;SDS011;2471;47.056;8.350;2023-06-26T11:26:12;9.38;;;6.70;;
4911;SDS011;2471;47.056;8.350;2023-06-26T11:28:38;7.28;;;6.47;;
4911;SDS011;2471;47.056;8.350;2023-06-26T11:31:04;9.25;;;6.35;;
4911;SDS011;2471;47.056;8.350;2023-06-26T11:33:30;7.60;;;6.80;;
4911;SDS011;2471;47.056;8.350;2023-06-26T11:35:56;9.15;;;7.60;;
4911;SDS011;2471;47.056;8.350;2023-06-26T11:38:39;9.25;;;6.97;;
4911;SDS011;2471;47.056;8.350;2023-06-26T11:41:05;10.13;;;8.10;;
4911;SDS011;2471;47.056;8.350;2023-06-26T11:43:33;11.80;;;6.70;;
4911;SDS011;2471;47.056;8.350;2023-06-26T11:45:59;8.68;;;6.70;;
4911;SDS011;2471;47.056;8.350;2023-06-26T11:48:25;9.23;;;7.82;;
4911;SDS011;2471;47.056;8.350;2023-06-26T11:50:51;7.90;;;7.10;;
4911;SDS011;2471;47.056;8.350;2023-06-26T11:53:17;11.30;;;6.90;;
4911;SDS011;2471;47.056;8.350;2023-06-26T11:55:43;9.70;;;6.60;;
4911;SDS011;2471;47.056;8.350;2023-06-26T11:58:09;10.73;;;6.68;;
4911;SDS011;2471;47.056;8.350;2023-06-26T12:00:35;9.80;;;7.00;;
4911;SDS011;2471;47.056;8.350;2023-06-26T12:03:06;8.50;;;7.32;;
4911;SDS011;2471;47.056;8.350;2023-06-26T12:05:32;8.02;;;7.07;;
4911;SDS011;2471;47.056;8.350;2023-06-26T12:07:58;8.27;;;7.33;;
4911;SDS011;2471;47.056;8.350;2023-06-26T12:10:24;10.30;;;7.43;;
4911;SDS011;2471;47.056;8.350;2023-06-26T12:12:50;10.10;;;7.20;;
4911;SDS011;2471;47.056;8.350;2023-06-26T12:15:16;9.80;;;7.38;;
4911;SDS011;2471;47.056;8.350;2023-06-26T12:17:42;10.25;;;7.38;;
4911;SDS011;2471;47.056;8.350;2023-06-26T12:20:29;10.70;;;7.10;;
4911;SDS011;2471;47.056;8.350;2023-06-26T12:22:57;7.90;;;7.10;;
4911;SDS011;2471;47.056;8.350;2023-06-26T12:25:23;8.95;;;6.80;;
4911;SDS011;2471;47.056;8.350;2023-06-26T12:27:49;7.80;;;7.00;;
4911;SDS011;2471;47.056;8.350;2023-06-26T12:30:15;9.20;;;7.60;;
4911;SDS011;2471;47.056;8.350;2023-06-26T12:32:45;8.65;;;7.68;;
4911;SDS011;2471;47.056;8.350;2023-06-26T12:35:11;12.57;;;7.43;;
4911;SDS011;2471;47.056;8.350;2023-06-26T12:37:37;10.50;;;7.50;;
4911;SDS011;2471;47.056;8.350;2023-06-26T12:40:16;9.82;;;8.20;;
4911;SDS011;2471;47.056;8.350;2023-06-26T12:42:43;11.45;;;8.90;;
4911;SDS011;2471;47.056;8.350;2023-06-26T12:45:12;10.90;;;9.07;;
4911;SDS011;2471;47.056;8.350;2023-06-26T12:47:39;14.63;;;8.00;;
4911;SDS011;2471;47.056;8.350;2023-06-26T12:50:06;14.20;;;9.60;;
4911;SDS011;2471;47.056;8.350;2023-06-26T12:52:32;26.85;;;9.80;;
4911;SDS011;2471;47.056;8.350;2023-06-26T12:54:58;12.97;;;8.57;;
4911;SDS011;2471;47.056;8.350;2023-06-26T12:57:24;11.48;;;9.00;;
4911;SDS011;2471;47.056;8.350;2023-06-26T12:59:51;13.95;;;9.20;;
4911;SDS011;2471;47.056;8.350;2023-06-26T13:02:17;12.17;;;9.90;;
4911;SDS011;2471;47.056;8.350;2023-06-26T13:04:43;13.10;;;9.97;;
4911;SDS011;2471;47.056;8.350;2023-06-26T13:07:09;10.65;;;8.40;;
4911;SDS011;2471;47.056;8.350;2023-06-26T13:09:35;10.48;;;9.43;;
4911;SDS011;2471;47.056;8.350;2023-06-26T13:12:02;9.80;;;8.80;;
4911;SDS011;2471;47.056;8.350;2023-06-26T13:14:31;11.32;;;10.00;;
4911;SDS011;2471;47.056;8.350;2023-06-26T13:16:57;12.33;;;9.53;;
4911;SDS011;2471;47.056;8.350;2023-06-26T13:19:23;11.63;;;9.52;;
4911;SDS011;2471;47.056;8.350;2023-06-26T13:21:49;13.67;;;10.40;;
4911;SDS011;2471;47.056;8.350;2023-06-26T13:24:15;13.65;;;9.93;;
4911;SDS011;2471;47.056;8.350;2023-06-26T13:26:41;12.57;;;10.80;;
4911;SDS011;2471;47.056;8.350;2023-06-26T13:29:07;12.65;;;9.88;;
4911;SDS011;2471;47.056;8.350;2023-06-26T13:31:33;10.68;;;9.57;;
4911;SDS011;2471;47.056;8.350;2023-06-26T13:33:59;10.60;;;8.93;;
4911;SDS011;2471;47.056;8.350;2023-06-26T13:36:25;13.40;;;9.63;;
4911;SDS011;2471;47.056;8.350;2023-06-26T13:38:51;10.40;;;8.93;;
4911;SDS011;2471;47.056;8.350;2023-06-26T13:41:23;10.77;;;9.13;;
4911;SDS011;2471;47.056;8.350;2023-06-26T13:43:49;11.43;;;9.27;;
4911;SDS011;2471;47.056;8.350;2023-06-26T13:46:16;15.25;;;9.18;;
4911;SDS011;2471;47.056;8.350;2023-06-26T13:48:42;11.13;;;8.38;;
4911;SDS011;2471;47.056;8.350;2023-06-26T13:51:08;14.35;;;9.15;;
4911;SDS011;2471;47.056;8.350;2023-06-26T13:53:34;10.05;;;8.20;;
4911;SDS011;2471;47.056;8.350;2023-06-26T13:56:00;9.60;;;8.60;;
4911;SDS011;2471;47.056;8.350;2023-06-26T13:58:26;13.23;;;8.70;;
4911;SDS011;2471;47.056;8.350;2023-06-26T14:00:54;15.13;;;9.60;;
4911;SDS011;2471;47.056;8.350;2023-06-26T14:03:21;11.67;;;10.07;;
4911;SDS011;2471;47.056;8.350;2023-06-26T14:05:47;11.27;;;8.70;;
4911;SDS011;2471;47.056;8.350;2023-06-26T14:08:13;13.90;;;9.10;;
4911;SDS011;2471;47.056;8.350;2023-06-26T14:10:39;10.23;;;8.50;;
4911;SDS011;2471;47.056;8.350;2023-06-26T14:13:05;9.85;;;8.85;;
4911;SDS011;2471;47.056;8.350;2023-06-26T14:15:32;12.10;;;8.82;;
4911;SDS011;2471;47.056;8.350;2023-06-26T14:17:58;14.60;;;9.32;;
4911;SDS011;2471;47.056;8.350;2023-06-26T14:20:27;14.50;;;8.73;;
4911;SDS011;2471;47.056;8.350;2023-06-26T14:22:55;12.13;;;9.05;;
4911;SDS011;2471;47.056;8.350;2023-06-26T14:25:21;13.52;;;9.40;;
4911;SDS011;2471;47.056;8.350;2023-06-26T14:27:47;11.17;;;9.57;;
4911;SDS011;2471;47.056;8.350;2023-06-26T14:30:13;11.52;;;8.10;;
4911;SDS011;2471;47.056;8.350;2023-06-26T14:32:39;11.57;;;9.43;;
4911;SDS011;2471;47.056;8.350;2023-06-26T14:35:05;13.65;;;8.98;;
4911;SDS011;2471;47.056;8.350;2023-06-26T14:37:31;10.98;;;9.25;;
4911;SDS011;2471;47.056;8.350;2023-06-26T14:39:57;13.15;;;9.40;;
4911;SDS011;2471;47.056;8.350;2023-06-26T14:42:24;11.70;;;9.55;;
4911;SDS011;2471;47.056;8.350;2023-06-26T14:44:50;10.38;;;9.27;;
4911;SDS011;2471;47.056;8.350;2023-06-26T14:47:16;13.55;;;8.80;;
4911;SDS011;2471;47.056;8.350;2023-06-26T14:49:42;12.52;;;10.40;;
4911;SDS011;2471;47.056;8.350;2023-06-26T14:52:08;14.45;;;9.95;;
4911;SDS011;2471;47.056;8.350;2023-06-26T14:54:34;12.02;;;9.27;;
4911;SDS011;2471;47.056;8.350;2023-06-26T14:57:04;13.90;;;9.35;;
4911;SDS011;2471;47.056;8.350;2023-06-26T14:59:30;17.25;;;10.20;;
4911;SDS011;2471;47.056;8.350;2023-06-26T15:01:56;10.10;;;9.00;;
4911;SDS011;2471;47.056;8.350;2023-06-26T15:04:22;12.90;;;9.60;;